Time;durP1;ratioP1;P1;durP2;ratioP2;P2;SDS_P1;SDS_P2;PMS_P1;PMS_P2;Temp;Humidity;BMP_temperature;BMP_pressure;BME280_temperature;BME280_humidity;BME280_pressure;Samples;Min_cycle;Max_cycle;Signal;HPM_P1;HPM_P2
2022/12/22 03:26:41;;;;;;;13.13;5.03;;;;;;;8.57;100.00;100367.47;5094423;27;96989;-30
2022/12/22 03:29:06;;;;;;;11.88;5.60;;;;;;;8.59;100.00;100376.34;5094929;27;96623;-30
2022/12/22 03:31:32;;;;;;;11.32;5.32;;;;;;;8.58;100.00;100371.91;5095017;27;96833;-30
2022/12/22 03:33:57;;;;;;;9.18;4.40;;;;;;;8.56;100.00;100361.22;5094965;27;98046;-30
2022/12/22 03:36:23;;;;;;;12.48;5.07;;;;;;;8.57;100.00;100360.22;5095008;27;97781;-30
2022/12/22 03:38:48;;;;;;;16.10;6.18;;;;;;;8.55;100.00;100350.50;5094963;27;96534;-30
2022/12/22 03:46:29;;;;;;;13.45;5.45;;;;;;;8.58;100.00;100350.28;5094933;27;103338;-30
2022/12/22 03:46:42;;;;;;;12.68;5.07;;;;;;;8.56;100.00;100346.84;5094057;27;97003;-31
2022/12/22 03:49:11;;;;;;;11.15;4.93;;;;;;;8.57;100.00;100353.97;5094311;27;96633;-30
2022/12/22 03:51:43;;;;;;;14.40;5.55;;;;;;;8.58;100.00;100359.28;5075810;27;96810;-30
2022/12/22 03:54:11;;;;;;;13.93;6.07;;;;;;;8.56;100.00;100358.50;5075947;27;99254;-30
2022/12/22 03:56:36;;;;;;;11.68;3.63;;;;;;;8.56;100.00;100369.31;5075932;27;100513;-30
2022/12/22 03:59:02;;;;;;;15.55;6.00;;;;;;;8.53;100.00;100368.63;5094548;27;96610;-30
2022/12/22 04:01:28;;;;;;;14.93;5.80;;;;;;;8.52;100.00;100370.44;5094583;27;96945;-32
2022/12/22 04:03:53;;;;;;;20.58;6.13;;;;;;;8.52;100.00;100369.59;5094264;27;98846;-30
2022/12/22 04:06:18;;;;;;;11.90;5.22;;;;;;;8.53;100.00;100368.63;5093824;27;97210;-31
2022/12/22 04:08:44;;;;;;;16.70;6.97;;;;;;;8.53;100.00;100374.88;5094637;27;96615;-30
2022/12/22 04:13:58;;;;;;;15.13;5.88;;;;;;;8.54;100.00;100382.03;5094172;27;97227;-32
2022/12/22 04:16:24;;;;;;;11.60;5.63;;;;;;;8.55;100.00;100381.06;5075536;27;100845;-30
2022/12/22 04:18:49;;;;;;;17.35;5.78;;;;;;;8.54;100.00;100381.16;5093644;27;96660;-31
2022/12/22 04:21:15;;;;;;;11.68;5.78;;;;;;;8.56;100.00;100380.09;5094444;27;96799;-30
2022/12/22 04:23:40;;;;;;;13.45;5.40;;;;;;;8.53;100.00;100371.31;5094120;27;97226;-30
2022/12/22 04:26:06;;;;;;;12.77;5.93;;;;;;;8.54;100.00;100376.63;5093319;27;106559;-30
2022/12/22 04:28:31;;;;;;;11.88;5.28;;;;;;;8.54;100.00;100373.06;5094307;27;96616;-30
2022/12/22 04:30:56;;;;;;;11.65;4.78;;;;;;;8.56;100.00;100379.25;5094266;27;96870;-33
2022/12/22 04:33:22;;;;;;;13.90;5.45;;;;;;;8.55;100.00;100380.19;5093356;27;111311;-30
2022/12/22 04:35:47;;;;;;;12.05;5.60;;;;;;;8.56;100.00;100390.03;5094002;27;97744;-30
2022/12/22 04:38:12;;;;;;;16.58;5.95;;;;;;;8.56;100.00;100384.66;5093415;27;101546;-30
2022/12/22 04:40:38;;;;;;;12.95;6.68;;;;;;;8.56;100.00;100390.03;5094265;27;96929;-30
2022/12/22 04:43:03;;;;;;;14.48;6.38;;;;;;;8.53;100.00;100388.38;5093809;27;97934;-30
2022/12/22 04:45:28;;;;;;;13.52;5.20;;;;;;;8.55;100.00;100396.38;5093793;27;97766;-30
2022/12/22 04:47:53;;;;;;;13.07;5.65;;;;;;;8.54;100.00;100392.81;5093791;27;96700;-30
2022/12/22 04:50:19;;;;;;;14.65;6.78;;;;;;;8.54;100.00;100394.66;5093794;27;96895;-31
2022/12/22 04:52:44;;;;;;;11.90;5.05;;;;;;;8.54;100.00;100400.06;5093638;27;97900;-30
2022/12/22 04:55:10;;;;;;;16.67;5.07;;;;;;;8.55;100.00;100407.19;5093911;27;98415;-29
2022/12/22 04:57:35;;;;;;;12.65;5.60;;;;;;;8.55;100.00;100415.28;5093904;27;96512;-29
2022/12/22 05:00:01;;;;;;;12.27;5.68;;;;;;;8.55;100.00;100410.75;5093610;27;96722;-30
2022/12/22 05:02:26;;;;;;;13.13;5.47;;;;;;;8.56;100.00;100403.53;5074259;27;101235;-30
2022/12/22 05:04:51;;;;;;;14.27;5.25;;;;;;;8.55;100.00;100404.47;5093571;27;98051;-30
2022/12/22 05:07:17;;;;;;;12.32;4.97;;;;;;;8.53;100.00;100401.00;5093271;27;107633;-29
2022/12/22 05:09:42;;;;;;;15.05;5.53;;;;;;;8.49;100.00;100409.28;5093578;27;97920;-30
2022/12/22 05:13:09;;;;;;;10.52;4.97;;;;;;;8.50;100.00;100402.91;5093262;27;99121;-30
2022/12/22 05:15:03;;;;;;;17.55;4.55;;;;;;;8.52;100.00;100420.88;5070064;27;97683;-30
2022/12/22 05:17:28;;;;;;;14.07;6.40;;;;;;;8.46;100.00;100414.00;5093461;27;96494;-30
2022/12/22 05:19:54;;;;;;;12.63;6.50;;;;;;;8.47;100.00;100418.44;5093551;27;96851;-30
2022/12/22 05:22:19;;;;;;;13.75;6.28;;;;;;;8.46;100.00;100422.09;5093414;27;98061;-30
2022/12/22 05:24:44;;;;;;;12.68;5.10;;;;;;;8.47;100.00;100432.81;5093420;27;97786;-30
2022/12/22 05:27:11;;;;;;;10.90;4.25;;;;;;;8.46;100.00;100433.78;5074229;27;97057;-30
2022/12/22 05:29:36;;;;;;;12.65;5.28;;;;;;;8.46;100.00;100438.28;5074248;27;96843;-30
2022/12/22 05:32:02;;;;;;;13.82;5.15;;;;;;;8.47;100.00;100450.84;5093114;27;98072;-30
2022/12/22 05:34:27;;;;;;;18.85;5.70;;;;;;;8.44;100.00;100445.63;5093108;27;97326;-29
2022/12/22 05:36:52;;;;;;;15.18;5.07;;;;;;;8.45;100.00;100455.44;5093130;27;96665;-30
2022/12/22 05:39:18;;;;;;;16.00;4.22;;;;;;;8.41;100.00;100445.78;5093369;27;96978;-30
2022/12/22 05:41:43;;;;;;;10.35;4.38;;;;;;;8.42;100.00;100448.41;5093180;27;97892;-30
2022/12/22 05:44:09;;;;;;;7.60;3.95;;;;;;;8.34;100.00;100438.97;5092916;27;99256;-29
2022/12/22 05:46:34;;;;;;;7.57;3.35;;;;;;;8.37;100.00;100450.47;5093189;27;96566;-30
2022/12/22 05:48:59;;;;;;;6.03;2.88;;;;;;;8.35;100.00;100452.41;5092963;27;99281;-30
2022/12/22 05:51:25;;;;;;;8.85;3.78;;;;;;;8.34;100.00;100447.06;5092509;27;98378;-30
2022/12/22 05:53:50;;;;;;;9.85;2.90;;;;;;;8.30;100.00;100439.16;5092888;27;97919;-30
2022/12/22 05:56:15;;;;;;;8.25;4.18;;;;;;;8.29;100.00;100444.66;5093051;27;96714;-29
2022/12/22 05:58:40;;;;;;;8.02;2.97;;;;;;;8.30;100.00;100443.69;5092658;27;96857;-30
2022/12/22 06:01:06;;;;;;;6.32;2.42;;;;;;;8.29;100.00;100448.25;5092900;27;104554;-30
2022/12/22 06:03:31;;;;;;;5.30;3.08;;;;;;;8.29;100.00;100453.63;5093123;27;97259;-30
2022/12/22 06:05:57;;;;;;;10.10;3.55;;;;;;;8.28;100.00;100457.28;5092951;27;96699;-30
2022/12/22 06:08:23;;;;;;;9.57;3.47;;;;;;;8.29;100.00;100466.22;5074462;27;96842;-30
2022/12/22 06:10:49;;;;;;;5.07;2.63;;;;;;;8.26;100.00;100463.72;5073960;27;101082;-30
2022/12/22 06:13:15;;;;;;;6.28;2.63;;;;;;;8.29;100.00;100468.94;5073504;27;100853;-30
2022/12/22 06:15:40;;;;;;;8.20;3.25;;;;;;;8.26;100.00;100475.38;5092304;27;97160;-30
2022/12/22 06:18:05;;;;;;;7.07;3.63;;;;;;;8.24;100.00;100477.28;5092790;27;96749;-30
2022/12/22 06:20:31;;;;;;;7.15;3.00;;;;;;;8.22;100.00;100486.44;5092618;27;97344;-30
2022/12/22 06:22:56;;;;;;;6.68;2.90;;;;;;;8.20;100.00;100501.84;5092513;27;97826;-30
2022/12/22 06:25:21;;;;;;;8.60;3.45;;;;;;;8.16;100.00;100508.38;5091770;27;102410;-30
2022/12/22 06:27:47;;;;;;;4.93;2.30;;;;;;;8.15;100.00;100509.31;5092732;27;96573;-31
2022/12/22 06:30:14;;;;;;;7.90;3.20;;;;;;;8.13;100.00;100511.22;5095557;27;98658;-30
2022/12/22 06:32:39;;;;;;;8.15;2.92;;;;;;;8.11;100.00;100507.78;5077424;27;100748;-30
2022/12/22 06:35:05;;;;;;;12.70;3.67;;;;;;;8.09;100.00;100508.72;5096059;27;96629;-30
2022/12/22 06:37:30;;;;;;;7.55;3.58;;;;;;;8.09;100.00;100516.81;5077288;27;96803;-29
2022/12/22 06:39:59;;;;;;;7.35;3.40;;;;;;;8.06;100.00;100517.00;5095376;27;97963;-29
2022/12/22 06:45:08;;;;;;;7.05;2.53;;;;;;;8.01;100.00;100526.31;5096177;27;96628;-30
2022/12/22 06:47:34;;;;;;;8.85;2.72;;;;;;;8.02;100.00;100536.13;5095665;27;96877;-30
2022/12/22 06:49:59;;;;;;;7.95;3.13;;;;;;;8.01;100.00;100526.31;5095336;27;102986;-31
2022/12/22 06:52:24;;;;;;;5.88;2.60;;;;;;;7.97;100.00;100522.03;5095435;27;99103;-30
2022/12/22 06:54:50;;;;;;;5.50;2.55;;;;;;;7.96;100.00;100520.28;5095582;27;96755;-30
2022/12/22 06:57:15;;;;;;;8.05;2.55;;;;;;;7.92;100.00;100525.00;5096207;27;96784;-30
2022/12/22 06:59:41;;;;;;;2.97;1.70;;;;;;;7.94;100.00;100528.47;5095545;27;97418;-30
2022/12/22 07:02:09;;;;;;;7.97;3.05;;;;;;;7.87;100.00;100519.84;5076681;27;100776;-29
2022/12/22 07:04:34;;;;;;;5.75;1.90;;;;;;;7.88;100.00;100531.50;5095050;27;96628;-29
2022/12/22 07:07:00;;;;;;;6.32;3.08;;;;;;;7.84;100.00;100538.91;5095090;27;96752;-31
2022/12/22 07:09:25;;;;;;;3.42;1.50;;;;;;;7.84;100.00;100551.50;5094928;27;97456;-29
2022/12/22 07:11:50;;;;;;;6.82;2.03;;;;;;;7.80;100.00;100556.19;5094474;27;97745;-29
2022/12/22 07:14:16;;;;;;;6.07;2.05;;;;;;;7.81;100.00;100557.06;5094038;27;96655;-30
2022/12/22 07:16:41;;;;;;;6.38;2.28;;;;;;;7.75;100.00;100549.34;5095595;27;96832;-29
2022/12/22 07:19:06;;;;;;;4.95;2.25;;;;;;;7.73;100.00;100543.16;5095089;27;97916;-30
2022/12/22 07:21:32;;;;;;;5.03;2.22;;;;;;;7.73;100.00;100557.50;5094044;27;97801;-30
2022/12/22 07:23:57;;;;;;;11.30;2.47;;;;;;;7.72;100.00;100566.50;5094862;27;96640;-31
2022/12/22 07:26:22;;;;;;;4.00;1.85;;;;;;;7.68;100.00;100570.34;5094292;27;98134;-31
2022/12/22 07:28:47;;;;;;;4.88;1.70;;;;;;;7.67;100.00;100574.00;5094799;27;96752;-30
2022/12/22 07:31:16;;;;;;;7.57;2.08;;;;;;;7.67;100.00;100571.28;5074971;27;102017;-32
2022/12/22 07:33:41;;;;;;;3.38;1.95;;;;;;;7.64;100.00;100576.84;5073883;27;97101;-30
2022/12/22 07:36:11;;;;;;;2.80;1.52;;;;;;;7.62;100.00;100582.31;5092533;27;96994;-30
2022/12/22 07:38:39;;;;;;;5.45;1.73;;;;;;;7.57;100.00;100586.22;5073308;27;100923;-33
2022/12/22 07:42:43;;;;;;;4.00;1.80;;;;;;;7.55;100.00;100594.38;5072257;27;100981;-32
2022/12/22 07:43:53;;;;;;;5.82;2.47;;;;;;;7.50;100.00;100591.06;5091890;27;96991;-31
2022/12/22 07:46:20;;;;;;;2.67;1.75;;;;;;;7.48;100.00;100611.84;5074714;27;96977;-29
2022/12/22 07:51:34;;;;;;;3.33;1.00;;;;;;;7.38;100.00;100597.09;5092373;27;97024;-29
2022/12/22 07:53:59;;;;;;;1.58;0.98;;;;;;;7.35;100.00;100599.97;5075544;27;97448;-29
2022/12/22 07:56:25;;;;;;;3.58;1.63;;;;;;;7.31;100.00;100593.84;5094455;27;96852;-29
2022/12/22 07:58:50;;;;;;;2.08;1.05;;;;;;;7.32;100.00;100602.84;5094652;27;98119;-31
2022/12/22 08:01:16;;;;;;;4.55;1.27;;;;;;;7.28;100.00;100612.00;5094210;27;106612;-30
2022/12/22 08:03:41;;;;;;;2.63;1.40;;;;;;;7.26;100.00;100614.78;5094487;27;96851;-30
2022/12/22 08:06:06;;;;;;;1.48;1.05;;;;;;;7.20;100.00;100610.59;5094699;27;96505;-29
2022/12/22 08:08:33;;;;;;;4.63;1.25;;;;;;;7.22;100.00;100619.47;5094788;27;97463;-30
2022/12/22 08:11:01;;;;;;;2.17;1.35;;;;;;;7.20;100.00;100613.28;5059139;27;100928;-29
2022/12/22 08:13:27;;;;;;;4.50;1.77;;;;;;;7.20;100.00;100626.75;5075697;27;96695;-29
2022/12/22 08:15:53;;;;;;;5.60;1.38;;;;;;;7.20;100.00;100626.75;5094472;27;96686;-30
2022/12/22 08:18:18;;;;;;;2.13;1.45;;;;;;;7.19;100.00;100646.53;5093293;27;99834;-30
2022/12/22 08:20:50;;;;;;;3.03;1.42;;;;;;;7.18;100.00;100660.97;5093969;27;97812;-30
2022/12/22 08:23:16;;;;;;;2.80;1.77;;;;;;;7.18;100.00;100666.34;5094336;27;96580;-30
2022/12/22 08:25:42;;;;;;;6.22;0.82;;;;;;;7.15;100.00;100663.81;5074966;27;96911;-30
2022/12/22 08:28:07;;;;;;;4.75;1.77;;;;;;;7.16;100.00;100670.09;5075740;27;101211;-30
2022/12/22 08:30:33;;;;;;;2.80;1.52;;;;;;;7.19;100.00;100675.31;5094009;27;97187;-30
2022/12/22 08:32:59;;;;;;;3.88;1.92;;;;;;;7.18;100.00;100678.97;5093890;27;96712;-30
2022/12/22 08:35:24;;;;;;;3.40;1.67;;;;;;;7.18;100.00;100674.44;5094489;27;96779;-30
2022/12/22 08:37:51;;;;;;;4.93;1.88;;;;;;;7.18;100.00;100682.53;5075211;27;101228;-30
2022/12/22 08:40:22;;;;;;;5.05;2.10;;;;;;;7.17;100.00;100683.44;5075105;27;100985;-30
2022/12/22 08:42:53;;;;;;;6.38;2.33;;;;;;;7.14;100.00;100677.38;5074970;27;96926;-30
2022/12/22 08:45:18;;;;;;;6.65;1.73;;;;;;;7.18;100.00;100695.13;5075096;27;96848;-30
2022/12/22 08:47:44;;;;;;;6.70;2.22;;;;;;;7.16;100.00;100691.63;5093858;27;97747;-29
2022/12/22 08:50:10;;;;;;;5.30;2.15;;;;;;;7.15;100.00;100701.53;5093549;27;99423;-30
2022/12/22 08:52:36;;;;;;;3.33;1.42;;;;;;;7.13;100.00;100691.78;5074600;27;96878;-30
2022/12/22 08:55:01;;;;;;;2.95;2.17;;;;;;;7.12;100.00;100693.59;5093558;27;96854;-30
2022/12/22 08:57:27;;;;;;;4.82;2.47;;;;;;;7.13;100.00;100698.03;5093753;27;98037;-30
2022/12/22 08:59:52;;;;;;;6.70;1.77;;;;;;;7.16;100.00;100705.97;5093556;27;98915;-30
2022/12/22 09:02:17;;;;;;;3.42;2.25;;;;;;;7.12;100.00;100690.91;5093826;27;96593;-30
2022/12/22 09:04:43;;;;;;;5.25;1.88;;;;;;;7.15;100.00;100696.16;5093785;27;96807;-30
2022/12/22 09:07:08;;;;;;;3.70;1.75;;;;;;;7.14;100.00;100705.16;5092670;27;99650;-30
2022/12/22 09:09:34;;;;;;;5.57;1.83;;;;;;;7.16;100.00;100708.66;5093220;27;98131;-30
2022/12/22 09:12:00;;;;;;;3.97;1.92;;;;;;;7.18;100.00;100714.84;5093512;27;96482;-30
2022/12/22 09:14:27;;;;;;;2.90;1.52;;;;;;;7.14;100.00;100698.91;5093128;27;96785;-30
2022/12/22 09:16:52;;;;;;;5.63;1.85;;;;;;;7.17;100.00;100710.38;5074598;27;101315;-29
2022/12/22 09:19:18;;;;;;;2.72;1.55;;;;;;;7.20;100.00;100714.78;5093144;27;97766;-30
2022/12/22 09:21:43;;;;;;;4.15;1.88;;;;;;;7.21;100.00;100713.81;5093456;27;96534;-31
2022/12/22 09:24:09;;;;;;;3.97;1.52;;;;;;;7.22;100.00;100716.44;5093651;27;96391;-29
2022/12/22 09:26:35;;;;;;;4.05;1.92;;;;;;;7.25;100.00;100710.03;5092904;27;97866;-30
2022/12/22 09:29:00;;;;;;;6.32;1.80;;;;;;;7.30;100.00;100710.66;5093067;27;97765;-31
2022/12/22 09:31:27;;;;;;;5.15;1.98;;;;;;;7.35;100.00;100721.22;5092775;27;96541;-29
2022/12/22 09:33:53;;;;;;;4.47;2.10;;;;;;;7.37;100.00;100727.41;5074652;27;96907;-29
2022/12/22 09:36:21;;;;;;;3.40;1.85;;;;;;;7.41;100.00;100732.56;5093236;27;97885;-30
2022/12/22 09:38:47;;;;;;;4.05;1.83;;;;;;;7.48;100.00;100735.78;5074328;27;101155;-30
2022/12/22 09:41:40;;;;;;;1.95;1.48;;;;;;;7.57;100.00;100735.34;5093174;27;97499;-30
2022/12/22 09:44:15;;;;;;;3.40;1.70;;;;;;;7.61;100.00;100739.63;5093505;27;96687;-31
2022/12/22 09:46:41;;;;;;;3.97;1.98;;;;;;;7.67;100.00;100735.72;5074432;27;99395;-30
2022/12/22 09:49:06;;;;;;;4.63;1.85;;;;;;;7.74;100.00;100739.00;5093152;27;99963;-30
2022/12/22 09:51:39;;;;;;;4.18;2.20;;;;;;;7.85;100.00;100747.41;5093164;27;96623;-30
2022/12/22 09:54:05;;;;;;;4.13;1.92;;;;;;;7.90;100.00;100736.38;5074322;27;96651;-29
2022/12/22 09:56:30;;;;;;;3.17;1.67;;;;;;;7.95;100.00;100737.88;5092421;27;98589;-29
2022/12/22 09:58:57;;;;;;;2.70;1.50;;;;;;;7.99;100.00;100734.06;5092980;27;97859;-30
2022/12/22 10:01:29;;;;;;;1.63;1.05;;;;;;;8.11;100.00;100751.44;5074205;27;96631;-30
2022/12/22 10:04:03;;;;;;;3.42;2.10;;;;;;;8.19;100.00;100753.72;5076174;27;96755;-30
2022/12/22 10:06:47;;;;;;;6.28;2.00;;;;;;;8.23;100.00;100749.91;5096230;27;97462;-29
2022/12/22 10:09:25;;;;;;;11.60;1.65;;;;;;;8.33;100.00;100739.50;5096639;27;98056;-29
2022/12/22 10:11:59;;;;;;;4.72;1.48;;;;;;;8.37;100.00;100746.47;5096165;27;96542;-31
2022/12/22 10:14:32;;;;;;;3.40;1.48;;;;;;;8.34;100.00;100746.63;5097289;27;96754;-30
2022/12/22 10:17:14;;;;;;;3.95;2.00;;;;;;;8.43;100.00;100741.63;5077249;27;101246;-30
2022/12/22 10:19:40;;;;;;;3.30;1.23;;;;;;;8.54;100.00;100742.88;5095831;27;99432;-30
2022/12/22 10:22:29;;;;;;;0.98;0.85;;;;;;;8.64;100.00;100739.59;5077193;27;97571;-30
2022/12/22 10:24:55;;;;;;;2.30;1.30;;;;;;;8.73;100.00;100740.06;5077318;27;97130;-28
2022/12/22 10:27:24;;;;;;;2.53;1.25;;;;;;;8.86;100.00;100733.84;5077189;27;100970;-30
2022/12/22 10:29:50;;;;;;;1.98;1.20;;;;;;;8.98;100.00;100736.81;5076953;27;101297;-30
2022/12/22 10:32:20;;;;;;;2.05;0.90;;;;;;;9.17;100.00;100742.91;5077281;27;97176;-31
2022/12/22 10:35:04;;;;;;;2.78;1.15;;;;;;;9.37;100.00;100739.06;5095834;27;96801;-30
2022/12/22 10:37:33;;;;;;;4.03;1.33;;;;;;;9.49;99.64;100748.31;5077141;27;101187;-30
2022/12/22 10:40:12;;;;;;;3.17;1.33;;;;;;;9.85;98.46;100749.78;5096306;27;96867;-30
2022/12/22 10:42:43;;;;;;;6.57;1.30;;;;;;;10.08;96.78;100760.09;5077463;27;96586;-31
2022/12/22 10:45:17;;;;;;;3.13;1.20;;;;;;;10.26;94.97;100759.91;5077339;27;96814;-30
2022/12/22 10:47:48;;;;;;;1.83;1.17;;;;;;;10.49;93.81;100763.94;5076717;27;101168;-30
2022/12/22 10:50:13;;;;;;;2.40;1.23;;;;;;;10.61;93.24;100760.47;5076924;27;101049;-30
2022/12/22 10:52:39;;;;;;;1.55;0.98;;;;;;;10.45;92.46;100765.94;5095899;27;96475;-29
2022/12/22 10:55:24;;;;;;;3.70;2.33;;;;;;;9.82;93.49;100777.00;5095651;27;96667;-30
2022/12/22 10:57:50;;;;;;;2.78;1.42;;;;;;;9.46;95.26;100780.91;5076822;27;101022;-30
2022/12/22 11:00:29;;;;;;;7.47;1.90;;;;;;;9.21;96.27;100795.84;5076831;27;101048;-30
2022/12/22 11:02:57;;;;;;;7.47;2.20;;;;;;;8.97;97.51;100794.53;5076794;27;96685;-30
2022/12/22 11:05:23;;;;;;;5.53;2.40;;;;;;;8.69;98.34;100801.44;5077400;27;96814;-30
2022/12/22 11:07:49;;;;;;;5.15;3.20;;;;;;;8.48;99.44;100809.72;5076801;27;100995;-30
2022/12/22 11:10:39;;;;;;;6.03;3.17;;;;;;;8.24;100.00;100803.78;5095184;27;99236;-30
2022/12/22 11:13:36;;;;;;;7.28;3.80;;;;;;;8.07;100.00;100812.75;5076062;27;96698;-30
2022/12/22 11:16:07;;;;;;;10.38;3.70;;;;;;;8.06;100.00;100815.56;5095539;27;96531;-29
2022/12/22 11:19:01;;;;;;;7.75;3.88;;;;;;;7.94;100.00;100818.88;5095318;27;98048;-30
2022/12/22 11:21:53;;;;;;;5.25;2.72;;;;;;;7.79;100.00;100837.56;5095293;27;97425;-30
2022/12/22 11:24:33;;;;;;;7.85;3.90;;;;;;;7.71;100.00;100820.03;5076798;27;96573;-30
2022/12/22 11:27:28;;;;;;;5.28;2.55;;;;;;;7.58;100.00;100830.53;5094760;27;96653;-30
2022/12/22 11:30:06;;;;;;;4.55;2.60;;;;;;;7.43;100.00;100833.03;5094901;27;97704;-30
2022/12/22 11:32:43;;;;;;;5.25;2.35;;;;;;;7.37;100.00;100836.06;5095204;27;97345;-30
2022/12/22 11:35:50;;;;;;;8.45;3.17;;;;;;;7.32;100.00;100837.22;5095221;27;96817;-31
2022/12/22 11:38:50;;;;;;;6.13;3.40;;;;;;;7.23;100.00;100830.47;5095212;27;96723;-32
2022/12/22 11:41:27;;;;;;;9.07;3.05;;;;;;;7.25;100.00;100833.97;5094149;27;99450;-30
2022/12/22 11:44:23;;;;;;;7.53;2.75;;;;;;;7.22;100.00;100826.00;5094869;27;97339;-30
2022/12/22 11:46:58;;;;;;;7.22;3.63;;;;;;;7.14;100.00;100820.97;5076365;27;96639;-30
2022/12/22 11:50:11;;;;;;;10.98;5.43;;;;;;;7.10;100.00;100815.81;5076619;27;96613;-30
2022/12/22 11:53:18;;;;;;;7.25;3.92;;;;;;;7.02;100.00;100808.09;5079565;27;99023;-30
2022/12/22 11:55:59;;;;;;;7.93;3.92;;;;;;;7.02;100.00;100791.94;5079261;27;97836;-30
2022/12/22 11:58:28;;;;;;;12.38;4.63;;;;;;;7.06;100.00;100788.16;5076245;27;96778;-31
2022/12/22 12:01:21;;;;;;;11.52;5.35;;;;;;;7.05;100.00;100794.50;5094883;27;96795;-30
2022/12/22 12:03:57;;;;;;;10.55;5.10;;;;;;;7.05;100.00;100786.41;5094512;27;98072;-30
2022/12/22 12:06:25;;;;;;;7.93;4.75;;;;;;;7.07;100.00;100797.13;5075895;27;101487;-30
2022/12/22 12:08:50;;;;;;;10.60;4.90;;;;;;;7.07;100.00;100806.06;5093887;27;96617;-29
2022/12/22 12:11:31;;;;;;;15.68;5.88;;;;;;;7.06;100.00;100793.56;5094628;27;96807;-29
2022/12/22 12:14:36;;;;;;;13.38;5.55;;;;;;;7.06;100.00;100785.47;5094336;27;97833;-31
2022/12/22 12:17:16;;;;;;;6.07;3.10;;;;;;;7.06;100.00;100781.91;5094254;27;99113;-30
2022/12/22 12:19:53;;;;;;;11.02;5.88;;;;;;;7.12;100.00;100782.47;5075557;27;96760;-30
2022/12/22 12:22:40;;;;;;;9.73;4.60;;;;;;;7.12;100.00;100777.09;5075744;27;96794;-30
2022/12/22 12:25:22;;;;;;;7.57;3.75;;;;;;;7.17;100.00;100769.66;5093437;27;99447;-30
2022/12/22 12:28:18;;;;;;;8.93;4.13;;;;;;;7.18;100.00;100768.72;5093904;27;99580;-30
2022/12/22 12:30:57;;;;;;;12.15;5.93;;;;;;;7.19;100.00;100774.97;5075108;27;96774;-30
2022/12/22 12:33:42;;;;;;;15.73;5.07;;;;;;;7.16;100.00;100776.00;5075536;27;96755;-29
2022/12/22 12:36:21;;;;;;;13.38;5.47;;;;;;;7.17;100.00;100764.25;5074819;27;100837;-31
2022/12/22 12:38:47;;;;;;;10.15;5.43;;;;;;;7.22;100.00;100756.84;5093565;27;99516;-30
2022/12/22 12:41:49;;;;;;;9.48;3.58;;;;;;;7.28;100.00;100760.19;5094082;27;96603;-30
2022/12/22 12:44:17;;;;;;;8.40;4.68;;;;;;;7.32;100.00;100751.00;5094053;27;96919;-30
2022/12/22 12:46:54;;;;;;;15.07;4.93;;;;;;;7.31;100.00;100743.88;5075087;27;101069;-30
2022/12/22 12:49:34;;;;;;;12.13;6.32;;;;;;;7.36;100.00;100750.75;5075164;27;101013;-30
2022/12/22 12:52:07;;;;;;;9.30;4.90;;;;;;;7.40;100.00;100748.78;5093580;27;96666;-30
2022/12/22 12:54:34;;;;;;;11.63;5.13;;;;;;;7.39;100.00;100742.53;5094337;27;96721;-30
2022/12/22 12:57:06;;;;;;;8.60;4.57;;;;;;;7.42;100.00;100746.91;5074808;27;101912;-30
2022/12/22 12:59:40;;;;;;;8.38;4.22;;;;;;;7.47;100.00;100752.06;5093369;27;97340;-30
2022/12/22 13:02:27;;;;;;;8.15;4.32;;;;;;;7.47;100.00;100739.47;5092102;27;96748;-29
2022/12/22 13:05:10;;;;;;;8.60;4.07;;;;;;;7.50;100.00;100741.13;5093739;27;96803;-30
2022/12/22 13:08:08;;;;;;;8.18;3.90;;;;;;;7.51;100.00;100734.78;5074765;27;101588;-30
2022/12/22 13:10:54;;;;;;;10.57;4.30;;;;;;;7.53;100.00;100727.47;5093162;27;99363;-31
2022/12/22 13:13:25;;;;;;;14.90;6.70;;;;;;;7.53;100.00;100728.38;5078257;27;97002;-30
2022/12/22 13:15:59;;;;;;;7.28;3.47;;;;;;;7.50;100.00;100716.88;5074272;27;96924;-30
2022/12/22 13:18:24;;;;;;;14.82;5.00;;;;;;;7.56;100.00;100709.34;5092786;27;98017;-30
2022/12/22 13:20:58;;;;;;;7.53;3.97;;;;;;;7.60;100.00;100708.25;5093307;27;99105;-30
2022/12/22 13:23:35;;;;;;;11.95;4.80;;;;;;;7.61;100.00;100703.72;5093332;27;96564;-29
2022/12/22 13:26:11;;;;;;;10.60;4.18;;;;;;;7.64;100.00;100701.72;5093153;27;96811;-30
2022/12/22 13:28:40;;;;;;;11.10;4.68;;;;;;;7.66;100.00;100701.66;5073852;27;101222;-30
2022/12/22 13:31:17;;;;;;;13.38;4.93;;;;;;;7.71;100.00;100696.88;5074144;27;100806;-30
2022/12/22 13:33:44;;;;;;;7.97;4.38;;;;;;;7.75;100.00;100694.91;5073945;27;97935;-30
2022/12/22 13:36:18;;;;;;;12.13;5.68;;;;;;;7.79;100.00;100688.41;5074585;27;96701;-29
2022/12/22 13:38:44;;;;;;;12.13;5.95;;;;;;;7.82;100.00;100688.25;5077503;27;101012;-31
2022/12/22 13:41:18;;;;;;;10.32;4.90;;;;;;;7.88;100.00;100685.22;5096403;27;99051;-30
2022/12/22 13:43:52;;;;;;;12.43;5.32;;;;;;;7.87;100.00;100683.47;5077753;27;96712;-30
2022/12/22 13:46:17;;;;;;;9.68;5.10;;;;;;;7.88;100.00;100682.50;5078597;27;96734;-30
2022/12/22 13:48:45;;;;;;;12.10;5.43;;;;;;;7.91;100.00;100684.19;5096609;27;98128;-29
2022/12/22 13:51:22;;;;;;;14.45;4.82;;;;;;;7.90;100.00;100672.53;5077672;27;103977;-30
2022/12/22 13:53:55;;;;;;;11.07;5.88;;;;;;;7.87;100.00;100668.16;5077428;27;96793;-29
2022/12/22 13:56:26;;;;;;;9.70;5.20;;;;;;;7.91;100.00;100662.59;5078094;27;96891;-30
2022/12/22 13:58:56;;;;;;;10.05;4.88;;;;;;;7.92;100.00;100669.75;5077706;27;100875;-30
2022/12/22 14:01:22;;;;;;;7.10;3.92;;;;;;;7.92;100.00;100670.63;5077897;27;101215;-30
2022/12/22 14:03:52;;;;;;;10.18;5.45;;;;;;;7.92;100.00;100667.06;5096659;27;96505;-30
2022/12/22 14:06:27;;;;;;;12.70;5.90;;;;;;;7.94;100.00;100663.31;5096182;27;96820;-30
2022/12/22 14:08:53;;;;;;;12.57;5.47;;;;;;;7.96;100.00;100663.22;5096172;27;97943;-29
2022/12/22 14:11:19;;;;;;;12.70;5.57;;;;;;;7.97;100.00;100649.66;5078029;27;101187;-30
2022/12/22 14:13:45;;;;;;;9.63;4.45;;;;;;;7.99;100.00;100646.91;5077766;27;96741;-30
2022/12/22 14:16:14;;;;;;;11.35;5.15;;;;;;;7.98;100.00;100637.03;5096359;27;96821;-30
2022/12/22 14:18:39;;;;;;;9.13;5.05;;;;;;;7.95;100.00;100631.81;5095428;27;99548;-30
2022/12/22 14:21:06;;;;;;;13.30;5.93;;;;;;;7.95;100.00;100627.28;5096096;27;98313;-33
2022/12/22 14:23:40;;;;;;;10.38;4.57;;;;;;;7.96;100.00;100634.44;5077769;27;96752;-29
2022/12/22 14:26:12;;;;;;;16.08;4.82;;;;;;;7.98;100.00;100632.50;5077272;27;96765;-30
2022/12/22 14:28:42;;;;;;;;;;;;;;;7.99;100.00;100628.00;5078010;27;99098;-29
2022/12/22 14:31:11;;;;;;;8.93;4.80;;;;;;;7.97;100.00;100629.94;5076834;27;101252;-31
2022/12/22 14:33:36;;;;;;;9.65;4.97;;;;;;;8.00;100.00;100627.91;5095945;27;96727;-29
2022/12/22 14:36:20;;;;;;;18.33;7.25;;;;;;;7.97;100.00;100616.44;5096165;27;97042;-30
2022/12/22 14:38:50;;;;;;;10.98;4.45;;;;;;;8.01;100.00;100620.72;5077222;27;99469;-30
2022/12/22 14:41:42;;;;;;;12.40;4.93;;;;;;;8.00;100.00;100619.81;5076339;27;100995;-30
2022/12/22 14:44:14;;;;;;;7.88;4.25;;;;;;;8.02;100.00;100620.63;5095045;27;97695;-29
2022/12/22 14:46:41;;;;;;;8.10;4.70;;;;;;;8.00;100.00;100608.16;5095529;27;96869;-30
2022/12/22 14:49:18;;;;;;;7.35;4.15;;;;;;;8.01;100.00;100610.78;5076395;27;100994;-30
2022/12/22 14:52:02;;;;;;;9.75;4.90;;;;;;;8.00;100.00;100602.78;5095338;27;97301;-30
2022/12/22 14:54:27;;;;;;;10.98;6.25;;;;;;;8.02;100.00;100612.53;5095583;27;96635;-30
2022/12/22 14:57:01;;;;;;;13.77;5.82;;;;;;;8.01;100.00;100601.84;5096026;27;96728;-30
2022/12/22 14:59:28;;;;;;;11.98;5.93;;;;;;;8.01;100.00;100605.41;5076844;27;101131;-30
2022/12/22 15:02:17;;;;;;;19.85;6.32;;;;;;;8.01;100.00;100600.00;5095592;27;98696;-30
2022/12/22 15:04:43;;;;;;;10.38;5.03;;;;;;;8.01;100.00;100597.31;5095998;27;96605;-29
2022/12/22 15:07:19;;;;;;;11.45;6.10;;;;;;;8.00;100.00;100594.69;5095755;27;96853;-29
2022/12/22 15:09:45;;;;;;;15.35;5.65;;;;;;;7.97;100.00;100589.47;5094900;27;99654;-30
2022/12/22 15:12:14;;;;;;;12.95;6.28;;;;;;;7.95;100.00;100578.75;5095334;27;97798;-30
2022/12/22 15:14:40;;;;;;;13.50;5.57;;;;;;;7.98;100.00;100577.72;5076791;27;96622;-31